Fleetwood, North Carolina
Current Conditions -  °F | °C
As of 11:15 AM on Thursday 18 Dec 2014 (Local Time) from KGEV Reporting Station
Overcast Overcast  
Wind Chill: 36°   Ceiling: 6000
Heat Index: 36°   Visibility: 10mi
Dew Point: 11°   Wind: 0mph
Humidity: 37%   Direction: NA
Pressure: 30.1"   Gusts: NA
Location:  36.31°N, 81.51°W
Report Text: KGEV 181615Z AUTO 00000KT 10SM OVC060 02/M11 A3010 RMK AO2 T00201115
Loading
Personal Weather Stations






























Interactive Weather Map New forecast layout! Learn more

10-Day Weather Forecast

Advertisements
Track Severe Weather on mobile